Time;durP1;ratioP1;P1;durP2;ratioP2;P2;SDS_P1;SDS_P2;PMS_P1;PMS_P2;Temp;Humidity;BMP_temperature;BMP_pressure;BME280_temperature;BME280_humidity;BME280_pressure;Samples;Min_cycle;Max_cycle;Signal;HPM_P1;HPM_P2
2022/06/19 00:01:58;;;;;;;13.93;5.18;;;;;;;27.63;43.16;99405.22;4998407;28;20054;-78
2022/06/19 00:04:25;;;;;;;14.63;5.07;;;;;;;27.59;43.38;99410.38;4955456;28;20046;-78
2022/06/19 00:06:53;;;;;;;9.55;4.30;;;;;;;27.56;43.35;99410.06;4979511;28;20112;-79
2022/06/19 00:09:19;;;;;;;15.77;5.30;;;;;;;27.54;43.18;99387.69;4994161;28;20497;-78
2022/06/19 00:11:47;;;;;;;18.58;4.88;;;;;;;27.50;43.13;99379.19;4965901;28;20046;-78
2022/06/19 00:14:13;;;;;;;17.17;5.82;;;;;;;27.47;43.07;99364.16;4984429;28;20049;-78
2022/06/19 00:16:40;;;;;;;14.27;4.72;;;;;;;27.44;43.42;99350.22;4986152;28;20050;-79
2022/06/19 00:19:07;;;;;;;15.88;5.50;;;;;;;27.43;43.21;99340.41;4986550;28;20104;-78
2022/06/19 00:21:34;;;;;;;13.25;5.13;;;;;;;27.42;43.20;99347.75;4949703;28;20041;-80
2022/06/19 00:24:00;;;;;;;17.75;4.95;;;;;;;27.42;42.85;99341.47;4955115;28;20048;-80
2022/06/19 00:26:27;;;;;;;15.82;5.35;;;;;;;27.39;42.87;99329.19;4968577;28;20052;-80
2022/06/19 00:28:54;;;;;;;19.17;5.95;;;;;;;27.35;43.52;99327.22;4981434;28;20057;-80
2022/06/19 00:31:21;;;;;;;19.63;6.22;;;;;;;27.27;44.12;99331.25;5000449;28;20057;-81
2022/06/19 00:33:47;;;;;;;13.68;5.32;;;;;;;27.20;44.55;99330.66;4985831;28;20049;-80
2022/06/19 00:36:14;;;;;;;12.23;4.72;;;;;;;27.12;44.77;99325.59;4986087;28;20057;-80
2022/06/19 00:38:41;;;;;;;15.27;4.65;;;;;;;27.08;45.10;99327.22;4978726;28;20045;-81
2022/06/19 00:41:08;;;;;;;10.32;4.93;;;;;;;27.04;45.06;99319.53;4967450;28;20042;-78
2022/06/19 00:43:53;;;;;;;22.77;5.38;;;;;;;27.01;45.43;99319.22;4953394;28;20480;-78
2022/06/19 00:46:47;;;;;;;15.20;5.65;;;;;;;26.92;44.48;99305.25;4975281;28;20038;-79
2022/06/19 00:49:27;;;;;;;18.08;6.20;;;;;;;26.88;43.83;99309.56;4966889;28;20116;-79
2022/06/19 00:52:11;;;;;;;12.70;5.43;;;;;;;26.91;43.56;99309.03;4987916;28;20537;-79
2022/06/19 00:54:50;;;;;;;19.58;6.03;;;;;;;26.98;43.88;99309.66;4920052;28;20104;-78
2022/06/19 00:57:22;;;;;;;16.65;5.40;;;;;;;26.98;43.58;99308.84;4938070;28;20042;-78
2022/06/19 00:59:55;;;;;;;21.85;5.72;;;;;;;26.97;43.66;99309.91;4967680;28;20442;-79
2022/06/19 01:02:22;;;;;;;15.05;5.90;;;;;;;26.97;43.45;99299.00;4979127;28;20979;-78
2022/06/19 01:04:52;;;;;;;11.13;4.78;;;;;;;26.94;43.72;99297.63;4997065;28;20057;-78
2022/06/19 01:07:22;;;;;;;12.65;5.05;;;;;;;26.94;43.53;99308.53;4971504;28;20049;-78
2022/06/19 01:09:50;;;;;;;22.73;5.88;;;;;;;26.92;43.47;99305.25;4953364;28;20042;-78
2022/06/19 01:12:19;;;;;;;17.48;5.20;;;;;;;26.90;43.47;99301.97;4983645;28;20046;-79
2022/06/19 01:14:46;;;;;;;15.25;5.35;;;;;;;26.91;43.61;99305.50;4996851;28;20058;-78
2022/06/19 01:17:15;;;;;;;16.95;4.75;;;;;;;26.90;43.55;99303.88;4971658;28;20103;-78
2022/06/19 01:19:43;;;;;;;19.52;5.22;;;;;;;26.85;43.70;99302.72;4968461;28;20050;-79
2022/06/19 01:22:25;;;;;;;13.40;5.50;;;;;;;26.80;44.08;99290.94;4950123;28;20038;-78
2022/06/19 01:25:06;;;;;;;15.27;6.50;;;;;;;26.78;44.02;99295.81;4966870;28;20061;-78
2022/06/19 01:30:29;;;;;;;15.55;5.47;;;;;;;26.67;44.14;99294.06;4917804;28;20126;-78
2022/06/19 01:32:58;;;;;;;14.93;5.32;;;;;;;26.65;44.22;99294.31;4945393;28;20060;-78
2022/06/19 01:35:27;;;;;;;12.60;4.68;;;;;;;26.65;43.96;99293.50;4937638;28;20474;-78
2022/06/19 01:38:09;;;;;;;15.82;6.43;;;;;;;26.63;44.19;99291.84;4925816;28;20067;-79
2022/06/19 01:40:36;;;;;;;16.52;5.13;;;;;;;26.63;44.12;99291.84;4954435;28;20047;-78
2022/06/19 01:43:05;;;;;;;18.90;5.35;;;;;;;26.61;43.98;99291.28;4921475;28;20559;-78
2022/06/19 01:45:32;;;;;;;11.65;4.45;;;;;;;26.57;43.97;99292.03;4938152;28;20130;-80
2022/06/19 01:48:00;;;;;;;17.65;5.05;;;;;;;26.58;43.79;99289.06;4956551;28;20121;-80
2022/06/19 01:50:30;;;;;;;12.50;5.20;;;;;;;26.55;43.86;99281.41;4957666;28;20050;-80
2022/06/19 01:53:03;;;;;;;11.82;5.28;;;;;;;26.55;43.83;99277.84;4943393;28;20051;-80
2022/06/19 01:55:31;;;;;;;12.90;5.85;;;;;;;26.57;43.73;99289.31;4961846;28;20623;-80
2022/06/19 01:58:00;;;;;;;11.85;4.78;;;;;;;26.54;44.09;99284.41;4955785;28;20058;-80
2022/06/19 02:00:29;;;;;;;14.10;5.13;;;;;;;26.54;43.89;99282.50;4952958;28;20486;-80
2022/06/19 02:03:34;;;;;;;13.23;5.35;;;;;;;26.53;43.92;99277.28;4965195;28;20140;-80
2022/06/19 02:06:01;;;;;;;14.27;4.70;;;;;;;26.54;43.79;99282.50;4930225;28;20454;-80
2022/06/19 02:08:30;;;;;;;14.48;4.75;;;;;;;26.50;43.87;99284.03;4982995;28;20045;-81
2022/06/19 02:10:59;;;;;;;12.02;4.57;;;;;;;26.48;44.18;99280.72;4984010;28;20062;-80
2022/06/19 02:13:25;;;;;;;18.85;5.47;;;;;;;26.47;43.85;99276.38;4997723;28;20042;-81
2022/06/19 02:15:52;;;;;;;16.70;4.95;;;;;;;26.42;44.08;99265.41;4996352;28;20613;-80
2022/06/19 02:18:26;;;;;;;14.90;5.03;;;;;;;26.36;44.08;99271.88;4956402;28;20500;-80
2022/06/19 02:20:54;;;;;;;14.20;5.20;;;;;;;26.36;44.17;99269.16;4962959;28;20038;-81
2022/06/19 02:23:31;;;;;;;22.35;5.25;;;;;;;26.30;44.27;99267.44;4964042;28;20045;-80
2022/06/19 02:25:58;;;;;;;18.27;5.00;;;;;;;26.30;43.81;99270.97;4978038;28;20080;-81
2022/06/19 02:28:27;;;;;;;19.23;5.25;;;;;;;26.26;43.78;99260.88;4968986;28;21616;-80
2022/06/19 02:30:54;;;;;;;14.07;5.25;;;;;;;26.28;43.96;99266.88;4971284;28;20041;-80
2022/06/19 02:33:24;;;;;;;15.02;5.57;;;;;;;26.25;44.08;99261.94;4979025;28;20145;-80
2022/06/19 02:35:51;;;;;;;12.00;5.13;;;;;;;26.22;44.00;99259.72;4969233;28;20046;-80
2022/06/19 02:38:19;;;;;;;16.15;5.63;;;;;;;26.20;44.00;99258.09;4976319;28;20104;-81
2022/06/19 02:41:12;;;;;;;14.05;5.18;;;;;;;26.19;44.06;99261.06;4983890;28;20054;-80
2022/06/19 02:43:39;;;;;;;;;;;;;;;26.19;44.07;99256.44;4924152;28;20042;-81
2022/06/19 02:46:06;;;;;;;13.65;4.97;;;;;;;26.19;44.13;99261.06;4979098;28;19926;-80
2022/06/19 02:48:33;;;;;;;11.75;4.78;;;;;;;26.16;44.19;99272.44;4979963;28;20041;-80
2022/06/19 02:51:01;;;;;;;11.75;5.07;;;;;;;26.12;44.20;99272.09;4962652;28;20064;-80
2022/06/19 02:53:29;;;;;;;16.30;5.28;;;;;;;26.09;43.85;99264.44;4988508;28;20046;-80
2022/06/19 02:55:56;;;;;;;14.40;5.30;;;;;;;26.07;43.98;99269.31;4984234;28;20509;-80
2022/06/19 02:58:24;;;;;;;14.13;6.10;;;;;;;26.05;44.27;99266.00;4980502;28;20407;-80
2022/06/19 03:00:51;;;;;;;18.17;5.32;;;;;;;26.02;44.30;99258.38;4987240;28;20046;-81
2022/06/19 03:03:38;;;;;;;14.65;5.10;;;;;;;25.98;44.43;99257.25;4967197;28;20040;-80
2022/06/19 03:06:06;;;;;;;18.70;5.00;;;;;;;25.95;44.58;99250.41;4949651;28;20053;-80
2022/06/19 03:08:32;;;;;;;16.30;4.78;;;;;;;25.92;44.47;99250.06;4965657;28;20046;-81
2022/06/19 03:11:01;;;;;;;20.05;5.30;;;;;;;25.85;44.56;99247.53;4952745;28;20395;-80
2022/06/19 03:13:28;;;;;;;17.15;4.85;;;;;;;25.79;44.43;99240.31;4979388;28;20038;-80
2022/06/19 03:16:07;;;;;;;15.07;5.55;;;;;;;25.78;44.63;99238.69;4961986;28;20070;-80
2022/06/19 03:18:38;;;;;;;12.40;4.85;;;;;;;25.74;44.71;99234.81;4982559;28;20077;-80
2022/06/19 03:21:05;;;;;;;18.83;5.35;;;;;;;25.73;44.56;99231.28;4994184;28;20051;-85
2022/06/19 03:23:32;;;;;;;17.92;6.03;;;;;;;25.68;44.57;99224.94;4969406;28;20132;-85
2022/06/19 03:25:59;;;;;;;18.13;4.65;;;;;;;25.66;44.53;99222.47;4980517;28;20053;-85
2022/06/19 03:28:25;;;;;;;15.13;5.47;;;;;;;25.62;44.62;99213.19;4992748;28;20046;-85
2022/06/19 03:30:56;;;;;;;15.90;5.18;;;;;;;25.60;44.71;99218.03;4996446;28;20043;-86
2022/06/19 03:33:23;;;;;;;11.57;4.78;;;;;;;25.59;44.70;99219.09;4977855;28;20038;-86
2022/06/19 03:35:52;;;;;;;12.57;4.97;;;;;;;25.55;44.84;99221.50;4963421;28;20126;-85
2022/06/19 03:38:19;;;;;;;13.77;4.65;;;;;;;25.54;44.88;99222.59;4967969;28;20543;-85
2022/06/19 03:40:46;;;;;;;14.50;5.47;;;;;;;25.53;44.95;99220.91;4985794;28;20042;-85
2022/06/19 03:43:13;;;;;;;17.00;5.40;;;;;;;25.51;45.16;99223.06;4971287;28;20149;-86
2022/06/19 03:45:40;;;;;;;15.88;5.43;;;;;;;25.52;45.60;99215.75;4978128;28;20512;-86
2022/06/19 03:48:08;;;;;;;14.05;4.85;;;;;;;25.53;45.61;99217.38;4976863;28;20405;-84
2022/06/19 03:50:34;;;;;;;16.48;5.45;;;;;;;25.53;45.46;99210.03;4979862;28;20070;-86
2022/06/19 03:53:01;;;;;;;12.90;4.95;;;;;;;25.55;45.72;99204.38;4966078;28;20815;-85
2022/06/19 03:55:28;;;;;;;11.90;5.05;;;;;;;25.55;46.17;99207.09;4959087;28;20387;-85
2022/06/19 03:57:55;;;;;;;12.40;4.32;;;;;;;25.55;46.02;99205.19;4967772;28;20046;-86
2022/06/19 04:00:22;;;;;;;14.45;4.72;;;;;;;25.60;46.25;99203.63;4974395;28;20552;-86
2022/06/19 04:02:49;;;;;;;16.88;4.88;;;;;;;25.62;46.01;99199.59;4979015;28;20048;-85
2022/06/19 04:05:18;;;;;;;13.65;5.00;;;;;;;25.67;46.27;99202.38;4994771;28;20042;-86
2022/06/19 04:07:47;;;;;;;13.32;5.07;;;;;;;25.74;46.14;99208.44;4976124;28;20068;-85
2022/06/19 04:10:15;;;;;;;12.32;5.00;;;;;;;25.80;46.00;99205.78;4978252;28;20034;-86
2022/06/19 04:12:44;;;;;;;10.20;4.88;;;;;;;25.83;45.94;99208.03;4988977;28;20038;-86
2022/06/19 04:15:12;;;;;;;13.43;4.65;;;;;;;25.87;46.09;99207.28;4980343;28;20050;-85
2022/06/19 04:17:39;;;;;;;15.40;5.53;;;;;;;25.90;46.38;99212.25;4979763;28;20050;-85
2022/06/19 04:20:07;;;;;;;10.80;5.72;;;;;;;25.96;45.85;99213.13;4983271;28;20045;-85
2022/06/19 04:22:35;;;;;;;20.08;5.95;;;;;;;26.03;46.09;99219.22;4986122;28;20143;-85
2022/06/19 04:25:03;;;;;;;12.38;5.10;;;;;;;26.09;45.80;99220.91;4986788;28;20046;-85
2022/06/19 04:27:34;;;;;;;13.30;4.68;;;;;;;26.10;45.81;99225.28;4979702;28;20410;-85
2022/06/19 04:30:01;;;;;;;15.75;5.22;;;;;;;26.17;45.73;99228.63;5001259;28;20047;-86
2022/06/19 04:32:29;;;;;;;15.82;5.80;;;;;;;26.22;45.50;99244.22;4982009;28;20119;-86
2022/06/19 04:34:56;;;;;;;17.63;5.20;;;;;;;26.26;45.25;99233.66;4980479;28;20057;-85
2022/06/19 04:37:22;;;;;;;13.73;5.88;;;;;;;26.28;44.77;99232.31;4982073;28;20046;-86
2022/06/19 04:39:49;;;;;;;16.60;5.20;;;;;;;26.31;43.79;99220.94;4997834;28;20068;-86
2022/06/19 04:42:16;;;;;;;13.60;4.88;;;;;;;26.34;43.45;99222.31;4979722;28;20104;-86
2022/06/19 04:44:42;;;;;;;17.02;5.47;;;;;;;26.38;43.25;99224.28;4980632;28;20487;-86
2022/06/19 04:47:09;;;;;;;19.52;5.25;;;;;;;26.45;43.33;99213.19;4981836;28;20038;-86
2022/06/19 04:49:36;;;;;;;13.70;5.28;;;;;;;26.52;42.85;99213.84;4983161;28;20057;-85
2022/06/19 04:52:03;;;;;;;13.85;5.40;;;;;;;26.52;42.74;99213.84;4995256;28;20050;-86
2022/06/19 04:54:30;;;;;;;18.42;4.80;;;;;;;26.55;42.89;99207.88;4983528;28;20050;-86
2022/06/19 04:56:57;;;;;;;21.83;5.68;;;;;;;26.54;42.83;99202.72;4981228;28;20564;-85
2022/06/19 04:59:23;;;;;;;18.17;5.32;;;;;;;26.52;43.03;99208.41;4964698;28;20046;-86
2022/06/19 05:01:50;;;;;;;21.98;5.15;;;;;;;26.50;43.43;99198.81;4996526;28;20498;-85
2022/06/19 05:04:17;;;;;;;12.43;5.07;;;;;;;26.48;43.32;99196.34;4985426;28;20052;-84
2022/06/19 05:06:44;;;;;;;13.68;4.65;;;;;;;26.44;43.54;99206.09;4967197;28;20060;-86
2022/06/19 05:09:10;;;;;;;17.83;6.03;;;;;;;26.39;43.63;99206.88;4952217;28;20065;-85
2022/06/19 05:11:37;;;;;;;10.02;5.38;;;;;;;26.38;43.64;99204.38;4985095;28;20453;-81
2022/06/19 05:14:04;;;;;;;12.18;5.55;;;;;;;26.35;43.72;99213.06;4968596;28;20046;-80
2022/06/19 05:16:31;;;;;;;14.93;5.22;;;;;;;26.35;44.06;99213.06;4978601;28;20049;-80
2022/06/19 05:18:58;;;;;;;14.05;5.78;;;;;;;26.37;43.84;99219.09;4982450;28;20125;-80
2022/06/19 05:21:25;;;;;;;15.48;5.57;;;;;;;26.36;43.72;99217.44;4947208;28;20038;-80
2022/06/19 05:23:53;;;;;;;18.08;5.70;;;;;;;26.33;43.46;99213.34;4978172;28;20517;-80
2022/06/19 05:26:26;;;;;;;14.00;5.15;;;;;;;26.32;44.12;99221.75;4968007;28;20117;-80
2022/06/19 05:28:53;;;;;;;17.90;5.90;;;;;;;26.34;43.92;99216.88;4986373;28;20049;-80
2022/06/19 05:31:20;;;;;;;19.65;5.68;;;;;;;26.34;44.09;99212.25;4966224;28;20050;-79
2022/06/19 05:33:47;;;;;;;18.77;5.30;;;;;;;26.39;44.41;99201.41;4979327;28;20049;-80
2022/06/19 05:36:15;;;;;;;19.15;6.45;;;;;;;26.44;44.40;99205.28;4980913;28;20053;-81
2022/06/19 05:38:41;;;;;;;21.60;6.00;;;;;;;26.50;44.52;99207.78;4950710;28;20513;-81
2022/06/19 05:41:08;;;;;;;16.23;5.32;;;;;;;26.53;43.93;99203.78;4964655;28;20508;-81
2022/06/19 05:43:35;;;;;;;16.05;5.35;;;;;;;26.57;44.39;99213.09;4966883;28;20133;-81
2022/06/19 05:46:05;;;;;;;15.48;5.50;;;;;;;26.58;44.80;99204.63;4964974;28;20140;-81
2022/06/19 05:48:33;;;;;;;14.55;5.40;;;;;;;26.59;44.38;99205.50;4962145;28;20445;-81
2022/06/19 05:51:03;;;;;;;14.10;5.68;;;;;;;26.59;43.72;99200.84;4995918;28;22612;-80
2022/06/19 05:53:36;;;;;;;16.55;5.70;;;;;;;26.59;43.87;99208.22;4948365;28;20426;-80
2022/06/19 05:56:07;;;;;;;15.07;5.50;;;;;;;26.65;44.18;99206.34;4813198;28;20060;-81
2022/06/19 05:58:35;;;;;;;15.55;5.72;;;;;;;26.66;43.82;99203.34;4870565;29;20089;-81
2022/06/19 06:01:04;;;;;;;18.25;5.30;;;;;;;26.72;44.42;99201.53;4877826;29;20616;-80
2022/06/19 06:03:32;;;;;;;15.10;5.07;;;;;;;26.74;44.35;99202.06;4852212;29;20407;-81
2022/06/19 06:06:04;;;;;;;14.85;5.88;;;;;;;26.78;44.18;99200.50;4848982;29;20071;-81
2022/06/19 06:08:31;;;;;;;16.83;6.13;;;;;;;26.82;43.59;99199.72;4867702;29;20053;-81
2022/06/19 06:10:58;;;;;;;12.15;4.97;;;;;;;26.82;43.72;99197.00;4882076;29;20480;-80
2022/06/19 06:13:25;;;;;;;18.45;5.53;;;;;;;26.82;43.78;99198.91;4885304;29;20059;-80
2022/06/19 06:15:52;;;;;;;15.88;4.97;;;;;;;26.83;43.73;99201.34;4868581;29;20064;-81
2022/06/19 06:18:19;;;;;;;16.08;5.57;;;;;;;26.87;43.89;99198.97;4857105;29;20072;-87
2022/06/19 06:20:54;;;;;;;13.45;5.85;;;;;;;26.87;44.09;99195.38;4895447;28;20051;-87
2022/06/19 06:23:20;;;;;;;16.33;6.28;;;;;;;26.89;44.46;99201.41;4967596;28;20046;-85
2022/06/19 06:25:47;;;;;;;14.98;5.65;;;;;;;26.96;44.71;99202.84;4966138;28;20061;-85
2022/06/19 06:28:14;;;;;;;18.40;6.05;;;;;;;27.00;44.46;99200.44;4993901;28;20046;-86
2022/06/19 06:30:42;;;;;;;15.73;5.28;;;;;;;27.03;44.19;99198.00;4956251;28;20045;-86
2022/06/19 06:33:10;;;;;;;17.30;5.80;;;;;;;27.05;43.95;99197.75;4992256;28;20505;-85
2022/06/19 06:35:37;;;;;;;13.10;5.78;;;;;;;27.10;43.97;99200.53;4953500;28;20430;-86
2022/06/19 06:38:04;;;;;;;15.73;5.15;;;;;;;27.15;43.87;99199.75;4978445;28;20516;-79
2022/06/19 06:40:32;;;;;;;19.27;6.40;;;;;;;27.15;43.83;99199.75;4978748;28;20035;-81
2022/06/19 06:42:59;;;;;;;15.40;5.60;;;;;;;27.14;43.70;99190.72;4979643;28;20379;-81
2022/06/19 06:45:25;;;;;;;12.65;5.28;;;;;;;27.16;43.66;99191.28;4967859;28;20056;-80
2022/06/19 06:47:52;;;;;;;14.00;5.15;;;;;;;27.15;43.81;99186.13;4957293;28;20046;-81
2022/06/19 06:50:19;;;;;;;21.70;5.63;;;;;;;27.19;44.09;99187.25;4973121;28;20052;-80
2022/06/19 06:52:46;;;;;;;15.57;5.32;;;;;;;27.23;44.03;99188.38;4981288;28;20042;-80
2022/06/19 06:55:13;;;;;;;15.20;5.32;;;;;;;27.22;43.50;99181.28;4962593;28;20497;-81
2022/06/19 06:57:40;;;;;;;16.45;5.40;;;;;;;27.26;43.55;99187.84;4968361;28;20042;-80
2022/06/19 07:00:09;;;;;;;20.92;5.72;;;;;;;27.24;43.24;99179.13;4961709;28;20049;-80
2022/06/19 07:02:35;;;;;;;15.95;5.25;;;;;;;27.25;43.63;99178.06;4969670;28;20121;-81
2022/06/19 07:05:02;;;;;;;16.40;5.40;;;;;;;27.28;43.99;99182.97;4967240;28;20080;-82
2022/06/19 07:07:29;;;;;;;15.93;4.95;;;;;;;27.32;43.86;99186.81;4961326;28;20046;-83
2022/06/19 07:09:56;;;;;;;13.55;4.88;;;;;;;27.36;42.49;99185.22;4950022;28;20045;-83
2022/06/19 07:12:23;;;;;;;17.20;4.97;;;;;;;27.36;42.66;99190.66;4987847;28;21304;-83
2022/06/19 07:14:49;;;;;;;14.88;4.85;;;;;;;27.39;42.85;99189.31;4963608;28;20041;-83
2022/06/19 07:17:18;;;;;;;17.48;5.72;;;;;;;27.42;43.44;99196.97;4971168;28;20070;-83
2022/06/19 07:19:45;;;;;;;16.40;5.38;;;;;;;27.47;43.91;99194.28;4972306;28;20037;-83
2022/06/19 07:22:14;;;;;;;13.25;5.60;;;;;;;27.53;44.14;99198.69;4968072;28;20057;-83
2022/06/19 07:24:42;;;;;;;14.20;5.57;;;;;;;27.52;43.72;99199.75;4954091;28;20042;-83
2022/06/19 07:27:09;;;;;;;16.20;5.00;;;;;;;27.58;43.56;99204.19;4977835;28;20042;-83
2022/06/19 07:29:45;;;;;;;15.13;5.63;;;;;;;27.61;44.21;99200.91;4978786;28;20050;-82
2022/06/19 07:32:13;;;;;;;19.45;5.38;;;;;;;27.61;44.33;99194.66;4987476;28;20049;-84
2022/06/19 07:34:41;;;;;;;18.60;5.32;;;;;;;27.66;44.46;99197.41;4954117;28;20053;-83
2022/06/19 07:37:09;;;;;;;22.77;5.53;;;;;;;27.66;44.19;99194.69;4983196;28;20049;-83
2022/06/19 07:39:36;;;;;;;13.38;5.50;;;;;;;27.65;44.48;99188.38;4979576;28;20096;-80
2022/06/19 07:42:05;;;;;;;18.77;5.57;;;;;;;27.73;44.47;99181.59;4976484;28;20137;-80
2022/06/19 07:44:31;;;;;;;15.48;5.20;;;;;;;27.78;44.77;99176.19;4963365;28;20437;-81
2022/06/19 07:52:30;;;;;;;15.50;6.00;;;;;;;27.98;44.92;99167.31;4941287;28;20138;-81
2022/06/19 07:54:57;;;;;;;18.73;5.40;;;;;;;28.05;44.88;99158.88;4968600;28;20060;-81
2022/06/19 07:57:23;;;;;;;14.38;5.57;;;;;;;28.15;45.31;99167.09;4954514;28;20042;-80
2022/06/19 07:59:50;;;;;;;16.88;5.65;;;;;;;28.17;45.10;99164.94;4969538;28;20054;-81
2022/06/19 08:02:17;;;;;;;17.58;5.40;;;;;;;28.22;45.09;99164.16;4951172;28;20057;-81
2022/06/19 08:04:44;;;;;;;15.23;6.50;;;;;;;28.31;44.98;99157.06;4954906;28;20042;-81
2022/06/19 08:07:12;;;;;;;18.83;6.15;;;;;;;28.40;44.43;99147.25;4982784;28;20038;-82
2022/06/19 08:09:40;;;;;;;17.48;6.43;;;;;;;28.42;43.68;99147.81;4956171;28;20461;-79
2022/06/19 08:12:07;;;;;;;20.63;7.25;;;;;;;28.49;43.05;99145.66;4979319;28;20498;-79
2022/06/19 08:14:34;;;;;;;15.75;7.85;;;;;;;28.58;42.32;99148.69;4969934;28;20058;-80
2022/06/19 08:17:01;;;;;;;17.02;7.07;;;;;;;28.68;42.68;99139.69;4943514;28;20129;-80
2022/06/19 08:19:28;;;;;;;16.23;6.90;;;;;;;28.76;42.55;99139.94;4982515;28;20076;-80
2022/06/19 08:21:54;;;;;;;20.30;8.43;;;;;;;28.86;42.37;99133.69;4954139;28;20143;-81
2022/06/19 08:24:21;;;;;;;20.80;7.93;;;;;;;28.92;41.79;99137.22;4985796;28;20494;-80
2022/06/19 08:26:52;;;;;;;27.27;8.80;;;;;;;29.02;41.97;99148.16;4945260;28;20050;-80
2022/06/19 08:29:19;;;;;;;17.70;8.63;;;;;;;29.09;41.84;99137.81;4968977;28;20050;-80
2022/06/19 08:31:47;;;;;;;20.85;8.75;;;;;;;29.16;41.57;99137.53;4951051;28;20367;-79
2022/06/19 08:34:14;;;;;;;17.48;8.48;;;;;;;29.20;41.45;99136.69;4986501;28;20044;-82
2022/06/19 08:36:40;;;;;;;19.17;9.13;;;;;;;29.23;40.80;99127.09;4955017;28;20057;-79
2022/06/19 08:39:10;;;;;;;14.45;7.32;;;;;;;29.26;40.52;99131.22;4981019;28;20042;-80
2022/06/19 08:41:40;;;;;;;26.27;8.63;;;;;;;29.32;40.74;99128.19;4948102;28;20043;-80
2022/06/19 08:44:27;;;;;;;19.33;9.07;;;;;;;29.31;39.79;99140.25;4965517;28;20061;-83
2022/06/19 08:47:24;;;;;;;17.60;9.48;;;;;;;29.46;39.79;99138.56;4986830;28;20053;-84
2022/06/19 08:50:06;;;;;;;20.13;8.52;;;;;;;29.45;38.75;99123.25;4928488;28;20037;-85
2022/06/19 08:52:49;;;;;;;21.30;9.70;;;;;;;29.51;38.26;99131.16;4987166;28;20449;-85
2022/06/19 08:55:22;;;;;;;15.75;8.80;;;;;;;29.54;38.38;99132.50;4951640;28;20045;-86
2022/06/19 08:58:24;;;;;;;18.05;8.43;;;;;;;29.58;38.36;99123.47;4986272;28;20060;-84
2022/06/19 09:01:02;;;;;;;20.52;8.65;;;;;;;29.64;38.25;99140.69;4971218;28;20112;-86
2022/06/19 09:06:43;;;;;;;16.27;8.57;;;;;;;29.78;38.85;99113.59;4925183;28;20045;-86
2022/06/19 09:09:23;;;;;;;15.60;8.70;;;;;;;29.79;38.41;99116.06;4970539;28;20379;-84
2022/06/19 09:12:29;;;;;;;19.42;8.95;;;;;;;29.84;37.83;99121.53;4969710;28;20042;-83
2022/06/19 09:15:49;;;;;;;15.10;8.20;;;;;;;29.88;38.13;99108.09;4957576;28;20050;-84
2022/06/19 09:18:35;;;;;;;15.43;7.65;;;;;;;29.89;36.29;99112.44;4899316;28;20046;-85
2022/06/19 09:21:17;;;;;;;17.70;8.00;;;;;;;29.97;36.40;99116.50;4984955;28;20052;-85
2022/06/19 09:24:40;;;;;;;16.23;8.15;;;;;;;29.93;35.44;99113.53;4974372;28;20100;-86
2022/06/19 09:32:21;;;;;;;13.30;7.47;;;;;;;30.14;35.30;99114.25;4992514;28;20037;-91
2022/06/19 09:35:18;;;;;;;17.92;8.00;;;;;;;30.21;34.58;99117.50;4955795;28;20046;-87
2022/06/19 09:37:59;;;;;;;16.63;7.90;;;;;;;30.16;33.85;99123.00;4934464;28;20155;-84
2022/06/19 09:40:30;;;;;;;17.98;7.53;;;;;;;30.20;34.85;99115.03;4973441;28;20053;-83
2022/06/19 09:47:22;;;;;;;18.85;8.20;;;;;;;30.22;34.63;99105.44;4971934;28;20527;-87
2022/06/19 09:50:20;;;;;;;18.17;8.00;;;;;;;30.26;34.69;99112.03;4955099;28;20046;-88
2022/06/19 09:53:05;;;;;;;26.52;10.32;;;;;;;30.51;34.77;99110.22;4963735;28;20193;-84
2022/06/19 09:55:35;;;;;;;16.63;8.65;;;;;;;30.48;34.45;99108.03;4957654;28;20060;-87
2022/06/19 09:58:18;;;;;;;15.45;8.43;;;;;;;30.54;34.33;99101.44;4970142;28;21046;-81
2022/06/19 10:00:47;;;;;;;16.42;8.23;;;;;;;30.58;35.04;99096.19;4963312;28;20046;-81
2022/06/19 10:03:44;;;;;;;13.95;8.60;;;;;;;30.56;33.88;99095.63;4961912;28;20133;-82
2022/06/19 10:06:15;;;;;;;17.33;8.55;;;;;;;30.66;33.48;99093.66;4953783;28;20050;-84
2022/06/19 10:09:03;;;;;;;15.85;8.13;;;;;;;30.59;32.89;99092.34;4989043;28;20041;-84
2022/06/19 10:11:34;;;;;;;22.70;8.20;;;;;;;30.67;33.10;99109.00;4983116;28;20046;-82
2022/06/19 10:14:10;;;;;;;14.13;7.82;;;;;;;30.69;33.41;99109.53;4981474;28;20046;-83
2022/06/19 10:17:03;;;;;;;13.68;7.95;;;;;;;30.63;33.16;99118.06;4933474;28;20047;-82
2022/06/19 10:20:00;;;;;;;10.75;7.40;;;;;;;30.67;33.18;99102.69;4936989;28;20453;-83
2022/06/19 10:23:05;;;;;;;19.02;8.00;;;;;;;30.68;33.38;99109.81;4948177;28;20551;-82
2022/06/19 10:25:55;;;;;;;11.32;7.40;;;;;;;30.66;33.46;99084.63;4945313;28;20048;-86
2022/06/19 10:28:49;;;;;;;19.55;8.15;;;;;;;30.79;33.12;99105.91;4988317;28;20045;-85
2022/06/19 10:31:53;;;;;;;14.07;8.82;;;;;;;30.79;33.29;99094.94;4910372;28;20572;-84
2022/06/19 10:35:00;;;;;;;19.23;7.90;;;;;;;30.72;33.04;99108.13;4914503;28;20122;-85
2022/06/19 10:37:35;;;;;;;11.60;7.88;;;;;;;30.80;33.35;99107.53;4944504;28;20501;-85
2022/06/19 10:40:42;;;;;;;20.77;8.93;;;;;;;30.87;33.53;99104.50;4970932;28;20038;-85
2022/06/19 10:43:23;;;;;;;12.38;7.40;;;;;;;30.88;33.25;99097.88;4971337;28;20129;-85
2022/06/19 10:45:52;;;;;;;16.87;8.23;;;;;;;30.99;33.22;99102.19;4957629;28;20051;-85
2022/06/19 10:48:32;;;;;;;14.57;8.60;;;;;;;30.94;33.06;99104.97;4955370;28;20116;-86
2022/06/19 10:51:12;;;;;;;11.85;7.72;;;;;;;31.02;33.77;99111.75;4950940;28;20060;-86
2022/06/19 10:54:00;;;;;;;13.32;8.70;;;;;;;30.91;33.86;99114.59;4972680;28;20065;-86
2022/06/19 10:56:48;;;;;;;16.55;8.70;;;;;;;30.95;33.37;99101.13;4963016;28;20112;-84
2022/06/19 10:59:15;;;;;;;14.63;8.52;;;;;;;31.07;34.01;99107.03;4999144;28;20149;-86
2022/06/19 11:04:37;;;;;;;20.17;9.13;;;;;;;31.00;33.94;99083.81;4938270;28;20390;-85
2022/06/19 11:07:09;;;;;;;17.45;8.30;;;;;;;31.04;33.57;99098.56;4968443;28;20048;-86
2022/06/19 11:09:41;;;;;;;16.47;8.83;;;;;;;31.05;33.30;99092.81;4984258;28;20042;-86
2022/06/19 11:12:43;;;;;;;16.52;8.73;;;;;;;31.03;32.66;99095.00;4983279;28;20520;-88
2022/06/19 11:15:36;;;;;;;15.30;8.10;;;;;;;31.05;33.92;99089.25;4938057;28;20038;-86
2022/06/19 11:18:45;;;;;;;15.15;8.70;;;;;;;31.06;33.18;99090.88;4897122;28;20454;-84
2022/06/19 11:21:14;;;;;;;13.60;7.90;;;;;;;31.18;33.11;99087.75;4880677;28;21127;-84
2022/06/19 11:23:47;;;;;;;21.30;8.52;;;;;;;31.11;33.02;99090.81;4943785;28;20051;-83
2022/06/19 11:26:15;;;;;;;13.55;7.90;;;;;;;31.15;33.26;99103.66;4946089;28;20526;-84
2022/06/19 11:28:48;;;;;;;19.55;8.27;;;;;;;31.18;33.28;99105.00;4948873;28;20463;-85
2022/06/19 11:31:37;;;;;;;17.20;8.07;;;;;;;31.24;33.44;99120.31;4928076;28;20153;-84
2022/06/19 11:35:02;;;;;;;16.85;8.63;;;;;;;31.36;32.90;99107.00;4908694;28;20043;-84
2022/06/19 11:37:28;;;;;;;15.95;7.93;;;;;;;31.25;33.73;99104.69;4918040;28;20499;-85
2022/06/19 11:39:58;;;;;;;16.08;8.18;;;;;;;31.30;34.01;99102.69;4915911;28;20083;-85
2022/06/19 11:42:27;;;;;;;18.98;8.35;;;;;;;31.36;33.88;99107.00;4931663;28;20438;-84
2022/06/19 11:45:12;;;;;;;12.57;7.80;;;;;;;31.38;33.64;99093.03;4921786;28;20074;-84
2022/06/19 11:47:41;;;;;;;17.90;8.85;;;;;;;31.47;33.60;99087.72;4929573;28;20051;-84
2022/06/19 11:50:33;;;;;;;15.93;8.32;;;;;;;31.42;33.56;99098.75;4967287;28;20843;-85
2022/06/19 11:53:03;;;;;;;17.73;8.00;;;;;;;31.52;33.43;99087.66;4939358;28;20061;-84
2022/06/19 11:55:40;;;;;;;17.42;8.85;;;;;;;31.47;33.33;99083.06;4978900;28;20046;-83
2022/06/19 11:58:26;;;;;;;15.55;8.93;;;;;;;31.47;33.51;99087.72;4979242;28;20050;-84
2022/06/19 12:00:58;;;;;;;19.73;9.10;;;;;;;31.58;33.90;99078.28;4962658;28;20117;-83
2022/06/19 12:03:49;;;;;;;18.23;9.15;;;;;;;31.57;34.24;99080.22;4964470;28;20092;-84
2022/06/19 12:06:19;;;;;;;14.10;8.60;;;;;;;31.65;34.12;99067.78;4970149;28;20564;-83
2022/06/19 12:08:55;;;;;;;23.20;8.18;;;;;;;31.65;33.86;99076.00;4968546;28;20042;-84
2022/06/19 12:11:40;;;;;;;15.07;8.73;;;;;;;31.65;34.40;99067.78;4951237;28;20050;-81
2022/06/19 12:14:09;;;;;;;21.33;9.82;;;;;;;31.77;33.83;99073.63;4995636;28;20042;-81